Time;durP1;ratioP1;P1;durP2;ratioP2;P2;SDS_P1;SDS_P2;PMS_P1;PMS_P2;Temp;Humidity;BMP_temperature;BMP_pressure;BME280_temperature;BME280_humidity;BME280_pressure;Samples;Min_cycle;Max_cycle;Signal;HPM_P1;HPM_P2
2023/01/23 00:06:33;;;;;;;0.60;0.60;;;;;;;7.49;63.65;101480.03;18496799;32;20113;-60
2023/01/23 00:16:38;;;;;;;0.60;0.60;;;;;;;7.60;63.25;101485.53;18496479;32;20437;-60
2023/01/23 00:26:42;;;;;;;0.65;0.65;;;;;;;7.42;63.75;101494.59;18496099;32;20178;-60
2023/01/23 00:36:46;;;;;;;0.60;0.60;;;;;;;7.53;63.25;101487.09;18495467;32;20089;-60
2023/01/23 00:46:50;;;;;;;0.60;0.60;;;;;;;7.43;63.52;101472.09;18494815;32;20351;-60
2023/01/23 00:56:54;;;;;;;0.60;0.60;;;;;;;7.51;63.37;101468.00;18493149;32;20096;-60
2023/01/23 01:06:57;;;;;;;0.60;0.60;;;;;;;7.62;63.12;101465.66;18493875;32;20101;-60
2023/01/23 01:17:02;;;;;;;0.82;0.82;;;;;;;7.36;63.54;101455.47;18493547;32;20092;-60
2023/01/23 01:27:07;;;;;;;0.60;0.60;;;;;;;7.07;64.17;101479.75;18492752;32;20089;-60
2023/01/23 01:37:12;;;;;;;0.70;0.70;;;;;;;7.40;63.76;101478.06;18492120;32;20738;-60
2023/01/23 01:47:15;;;;;;;1.27;1.17;;;;;;;7.48;63.37;101475.69;18492758;32;20099;-60
2023/01/23 01:57:22;;;;;;;0.90;0.82;;;;;;;7.50;63.56;101461.91;18490710;32;20153;-60
2023/01/23 02:07:32;;;;;;;0.47;0.47;;;;;;;7.92;62.36;101454.34;18491535;32;20116;-60
2023/01/23 02:17:39;;;;;;;0.70;0.70;;;;;;;7.32;63.72;101457.09;18500322;32;20106;-60
2023/01/23 02:27:46;;;;;;;0.60;0.60;;;;;;;7.97;61.84;101464.88;18499665;32;20432;-60
2023/01/23 02:37:52;;;;;;;2.37;1.23;;;;;;;7.34;63.86;101459.72;18498926;32;20158;-60
2023/01/23 02:47:57;;;;;;;0.50;0.50;;;;;;;6.99;65.39;101450.06;18499186;32;20120;-60
2023/01/23 03:08:19;;;;;;;0.80;0.80;;;;;;;7.56;63.41;101436.94;18498217;32;20123;-60
2023/01/23 03:18:23;;;;;;;1.37;1.25;;;;;;;7.74;62.37;101418.34;18497990;32;20417;-60
2023/01/23 03:49:11;;;;;;;0.57;0.57;;;;;;;7.95;61.50;101401.53;18497132;32;20373;-60
2023/01/23 03:59:14;;;;;;;0.60;0.60;;;;;;;8.61;59.65;101386.59;18497067;32;20120;-60
2023/01/23 04:09:21;;;;;;;0.68;0.68;;;;;;;8.30;60.39;101378.97;18497775;32;20111;-60
2023/01/23 04:19:24;;;;;;;0.60;0.60;;;;;;;8.40;60.28;101374.84;18496216;32;20104;-60
2023/01/23 04:29:29;;;;;;;0.60;0.60;;;;;;;8.63;59.92;101376.22;18496161;32;20097;-60
2023/01/23 04:39:32;;;;;;;0.88;0.88;;;;;;;8.50;59.99;101388.94;18495693;32;20120;-61
2023/01/23 04:49:37;;;;;;;2.80;2.60;;;;;;;8.63;59.68;101381.44;18496024;32;20425;-61
2023/01/23 04:59:41;;;;;;;0.60;0.60;;;;;;;8.19;60.86;101383.03;18494623;32;20129;-60
2023/01/23 05:09:45;;;;;;;0.60;0.60;;;;;;;8.37;60.41;101379.09;18494131;32;20094;-60
2023/01/23 05:19:48;;;;;;;0.60;0.60;;;;;;;8.35;60.58;101399.00;18493664;32;20111;-60
2023/01/23 05:29:53;;;;;;;1.52;1.42;;;;;;;8.70;59.49;101420.63;18492538;32;20402;-60
2023/01/23 05:39:56;;;;;;;0.60;0.60;;;;;;;8.63;59.63;101416.16;18492181;32;20100;-60
2023/01/23 05:50:01;;;;;;;0.60;0.60;;;;;;;8.60;59.94;101431.69;18500086;32;20109;-60
2023/01/23 06:00:06;;;;;;;0.60;0.60;;;;;;;8.61;59.91;101436.06;18500144;32;20464;-60
2023/01/23 06:10:11;;;;;;;0.60;0.60;;;;;;;8.69;59.53;101447.53;18501026;32;20096;-60
2023/01/23 06:20:15;;;;;;;0.60;0.60;;;;;;;8.68;60.14;101463.09;18499877;32;20100;-60
2023/01/23 06:30:20;;;;;;;0.70;0.70;;;;;;;8.78;59.86;101467.69;18497703;32;20128;-61
2023/01/23 06:40:24;;;;;;;0.73;0.73;;;;;;;8.97;59.29;101479.38;18499051;32;20107;-60
2023/01/23 06:50:28;;;;;;;0.60;0.60;;;;;;;8.80;59.96;101491.13;18498740;32;20101;-61
2023/01/23 07:00:33;;;;;;;0.80;0.80;;;;;;;8.77;60.08;101494.53;18492514;32;20144;-61
2023/01/23 07:10:38;;;;;;;0.60;0.60;;;;;;;8.87;59.94;101506.06;18469017;32;20097;-60
2023/01/23 07:20:44;;;;;;;0.60;0.60;;;;;;;9.08;59.57;101509.97;18432102;32;20421;-61
2023/01/23 07:30:50;;;;;;;0.60;0.60;;;;;;;9.18;59.56;101511.94;18428832;32;20882;-61
2023/01/23 07:40:58;;;;;;;0.60;0.60;;;;;;;8.88;59.70;101518.25;18489878;32;20084;-59
2023/01/23 07:51:04;;;;;;;0.50;0.50;;;;;;;9.74;57.92;101533.06;18493997;32;20153;-60
2023/01/23 08:01:08;;;;;;;0.60;0.60;;;;;;;9.92;57.49;101538.63;18489848;32;20119;-59
2023/01/23 08:11:13;;;;;;;0.50;0.50;;;;;;;10.40;56.65;101534.25;18491521;32;20103;-59
2023/01/23 08:21:16;;;;;;;0.60;0.60;;;;;;;10.69;55.87;101541.69;18491887;32;20107;-59
2023/01/23 08:31:21;;;;;;;0.77;0.77;;;;;;;10.80;55.96;101536.66;18489579;32;20117;-59
2023/01/23 08:41:24;;;;;;;0.90;0.70;;;;;;;11.20;54.77;101538.97;18494799;32;20110;-60
2023/01/23 08:51:29;;;;;;;0.60;0.60;;;;;;;11.24;55.34;101539.88;18494406;32;20096;-59
2023/01/23 09:01:32;;;;;;;0.40;0.40;;;;;;;11.33;55.16;101552.19;18491672;32;20109;-59
2023/01/23 09:11:36;;;;;;;0.57;0.57;;;;;;;11.74;53.96;101564.88;18459445;32;20116;-60
2023/01/23 09:21:40;;;;;;;0.40;0.40;;;;;;;11.98;53.66;101555.56;18480449;32;20115;-59
2023/01/23 09:31:44;;;;;;;0.55;0.55;;;;;;;11.87;54.16;101558.06;18459953;32;20130;-59
2023/01/23 09:41:48;;;;;;;0.55;0.55;;;;;;;11.85;54.13;101549.31;18499812;32;20122;-59
2023/01/23 09:51:56;;;;;;;1.17;1.08;;;;;;;11.98;54.23;101550.34;18494727;32;20445;-59
2023/01/23 10:02:00;;;;;;;0.50;0.50;;;;;;;11.87;54.46;101544.12;18499362;32;20373;-59
2023/01/23 10:12:13;;;;;;;1.37;1.27;;;;;;;11.76;55.12;101549.22;18497875;32;20141;-59
2023/01/23 10:22:28;;;;;;;0.43;0.43;;;;;;;12.30;54.34;101541.94;18495194;32;20096;-59
2023/01/23 10:32:45;;;;;;;0.50;0.50;;;;;;;12.19;54.88;101534.00;18490860;32;20150;-59
2023/01/23 10:42:48;;;;;;;0.40;0.40;;;;;;;12.85;54.13;101542.34;18487333;32;20106;-59
2023/01/23 10:52:53;;;;;;;0.62;0.50;;;;;;;13.28;53.20;101539.97;18493916;32;20127;-60
2023/01/23 11:02:56;;;;;;;0.50;0.50;;;;;;;13.69;51.86;101541.06;18495537;32;20129;-60
2023/01/23 11:13:02;;;;;;;1.05;1.05;;;;;;;13.87;51.51;101523.59;18494106;32;20112;-60
2023/01/23 11:23:13;;;;;;;0.37;0.37;;;;;;;14.01;50.98;101516.62;18493886;32;20124;-60
2023/01/23 11:33:26;;;;;;;0.40;0.40;;;;;;;13.94;51.53;101507.00;18483004;32;20138;-59
2023/01/23 11:43:29;;;;;;;0.40;0.40;;;;;;;14.24;51.40;101497.41;18488439;32;76353;-59
2023/01/23 11:53:37;;;;;;;0.50;0.50;;;;;;;14.26;50.76;101494.75;18483730;32;20456;-60
2023/01/23 12:04:14;;;;;;;0.40;0.40;;;;;;;14.36;50.90;101490.38;18494854;32;20136;-59
2023/01/23 12:14:22;;;;;;;0.68;0.68;;;;;;;14.64;50.39;101495.63;18447219;32;20361;-60
2023/01/23 12:24:39;;;;;;;1.30;0.50;;;;;;;14.50;50.50;101483.34;18491414;32;20111;-59
2023/01/23 12:34:58;;;;;;;0.50;0.50;;;;;;;13.95;49.61;101476.38;18485928;32;20089;-60
2023/01/23 12:45:06;;;;;;;0.68;0.68;;;;;;;13.71;50.12;101481.56;18489402;32;20103;-60
2023/01/23 12:55:18;;;;;;;0.40;0.40;;;;;;;14.05;49.94;101470.25;18472101;32;20104;-59
2023/01/23 13:05:24;;;;;;;0.60;0.60;;;;;;;14.14;49.43;101485.16;18459063;32;20093;-60
2023/01/23 13:15:35;;;;;;;0.77;0.77;;;;;;;14.02;49.28;101491.25;18436803;32;20081;-59
2023/01/23 13:25:43;;;;;;;0.40;0.40;;;;;;;14.01;49.67;101490.38;18438132;32;20089;-60
2023/01/23 13:35:54;;;;;;;0.55;0.50;;;;;;;13.95;50.04;101479.00;18470975;32;20091;-60
2023/01/23 13:45:58;;;;;;;0.40;0.40;;;;;;;13.55;50.02;101485.03;18461444;32;20773;-60
2023/01/23 14:06:39;;;;;;;4.57;0.80;;;;;;;13.65;49.57;101506.94;18276770;32;20117;-60
2023/01/23 14:16:59;;;;;;;0.35;0.35;;;;;;;12.85;51.45;101503.94;18069087;32;20111;-60
2023/01/23 14:27:19;;;;;;;0.52;0.52;;;;;;;13.41;50.51;101512.06;17864350;33;20145;-59
2023/01/23 14:37:29;;;;;;;0.77;0.77;;;;;;;13.65;50.35;101518.28;18133155;32;20481;-60
2023/01/23 14:47:33;;;;;;;1.00;0.70;;;;;;;14.06;49.49;101513.12;18354497;32;20417;-60
2023/01/23 14:57:39;;;;;;;2.45;1.10;;;;;;;13.93;49.78;101505.22;18496968;32;20141;-59
2023/01/23 15:07:44;;;;;;;0.60;0.60;;;;;;;13.79;50.04;101530.59;18463094;32;20628;-59
2023/01/23 15:17:49;;;;;;;0.40;0.40;;;;;;;13.63;50.41;101538.41;18471016;32;20107;-59
2023/01/23 15:27:55;;;;;;;0.40;0.40;;;;;;;13.37;51.38;101541.75;18486937;32;20103;-60
2023/01/23 15:38:03;;;;;;;0.43;0.43;;;;;;;13.06;52.21;101543.38;18481780;32;20088;-59
2023/01/23 15:48:07;;;;;;;0.47;0.47;;;;;;;12.86;52.81;101542.37;18430847;32;20096;-59
2023/01/23 15:58:14;;;;;;;0.85;0.85;;;;;;;12.65;53.43;101544.84;18483934;32;20370;-59
2023/01/23 16:08:20;;;;;;;0.70;0.70;;;;;;;12.60;53.37;101550.03;18492130;32;20142;-60
2023/01/23 16:18:25;;;;;;;1.23;1.08;;;;;;;12.53;53.38;101564.84;18493032;32;20093;-59
2023/01/23 16:28:28;;;;;;;0.52;0.52;;;;;;;12.38;53.83;101564.69;18488731;32;20105;-59
2023/01/23 16:38:33;;;;;;;0.70;0.70;;;;;;;11.66;55.69;101571.75;18492698;32;20097;-59
2023/01/23 16:48:37;;;;;;;0.60;0.60;;;;;;;11.86;55.28;101573.75;18481352;32;20130;-60
2023/01/23 16:58:42;;;;;;;0.65;0.65;;;;;;;12.01;54.93;101584.38;18455139;32;20461;-59
2023/01/23 17:08:46;;;;;;;2.72;2.05;;;;;;;11.98;55.07;101579.13;18485492;32;20732;-59
2023/01/23 17:18:51;;;;;;;0.50;0.50;;;;;;;11.99;55.02;101593.94;18470956;32;20121;-60
2023/01/23 17:28:54;;;;;;;1.77;1.40;;;;;;;11.65;55.67;101598.78;18423328;32;20137;-60
2023/01/23 17:38:59;;;;;;;2.50;0.98;;;;;;;11.86;55.34;101610.38;18484584;32;20096;-60
2023/01/23 17:49:04;;;;;;;0.50;0.50;;;;;;;11.54;56.06;101610.84;18495173;32;20680;-59
2023/01/23 17:59:08;;;;;;;0.95;0.90;;;;;;;11.52;55.65;101622.16;18469613;32;20097;-59
2023/01/23 18:09:12;;;;;;;0.60;0.60;;;;;;;11.42;55.76;101622.91;18433736;32;20120;-59
2023/01/23 18:19:19;;;;;;;0.35;0.35;;;;;;;11.58;55.29;101617.88;18433661;32;20096;-59
2023/01/23 18:29:29;;;;;;;0.65;0.65;;;;;;;11.33;55.84;101628.00;18431024;32;20081;-59
2023/01/23 18:39:43;;;;;;;2.47;1.33;;;;;;;11.46;55.43;101629.06;18440368;32;20115;-59
2023/01/23 18:49:47;;;;;;;0.60;0.60;;;;;;;11.24;55.94;101628.75;18352441;32;20145;-60
2023/01/23 19:00:04;;;;;;;0.55;0.55;;;;;;;11.29;55.58;101645.38;18345973;32;20113;-60
2023/01/23 19:10:13;;;;;;;0.95;0.70;;;;;;;10.60;57.47;101652.97;18421200;32;20097;-59
2023/01/23 19:20:26;;;;;;;0.68;0.68;;;;;;;11.17;55.87;101648.66;18496953;32;20439;-59
2023/01/23 19:30:30;;;;;;;0.62;0.62;;;;;;;11.16;55.85;101643.44;18493876;32;20107;-61
2023/01/23 19:40:35;;;;;;;0.50;0.50;;;;;;;11.27;55.67;101651.41;18480349;32;20085;-59
2023/01/23 19:50:42;;;;;;;0.77;0.77;;;;;;;11.45;54.98;101664.75;18489819;32;20730;-59
2023/01/23 20:00:47;;;;;;;0.50;0.50;;;;;;;11.47;54.85;101657.81;18486543;32;20118;-60
2023/01/23 20:10:50;;;;;;;0.50;0.50;;;;;;;11.37;54.67;101659.44;18493899;32;20111;-59
2023/01/23 20:20:59;;;;;;;0.55;0.55;;;;;;;11.12;54.80;101665.13;18495125;32;20497;-59
2023/01/23 20:31:04;;;;;;;0.50;0.50;;;;;;;10.91;55.12;101669.16;18493262;32;20439;-59
2023/01/23 20:41:11;;;;;;;0.73;0.73;;;;;;;10.77;55.29;101679.38;18493346;32;20388;-59
2023/01/23 20:51:16;;;;;;;0.55;0.55;;;;;;;10.53;55.67;101712.03;18490594;32;20108;-59
2023/01/23 21:01:23;;;;;;;0.82;0.62;;;;;;;9.73;57.43;101721.66;18489322;32;20393;-59
2023/01/23 21:11:26;;;;;;;0.77;0.77;;;;;;;9.20;58.84;101729.13;18487042;32;20092;-59
2023/01/23 21:21:32;;;;;;;1.02;1.02;;;;;;;9.08;59.39;101736.59;18498826;32;20472;-59
2023/01/23 21:31:39;;;;;;;0.55;0.55;;;;;;;9.20;59.07;101759.50;18356740;32;20139;-59
2023/01/23 21:41:43;;;;;;;0.80;0.80;;;;;;;8.46;61.71;101751.44;18365902;32;20123;-58
2023/01/23 21:51:47;;;;;;;0.62;0.62;;;;;;;8.63;60.58;101759.78;18483347;32;20101;-59
2023/01/23 22:01:51;;;;;;;0.82;0.82;;;;;;;8.44;60.52;101764.44;18500051;32;20107;-59
2023/01/23 22:11:55;;;;;;;1.83;1.67;;;;;;;8.07;61.03;101767.66;18500294;32;20096;-59
2023/01/23 22:22:08;;;;;;;2.08;1.10;;;;;;;7.75;61.49;101784.00;18500813;32;20144;-58
2023/01/23 22:32:12;;;;;;;1.00;1.00;;;;;;;7.56;61.41;101786.00;18498499;32;20378;-59
2023/01/23 22:42:17;;;;;;;3.58;2.92;;;;;;;7.02;63.34;101792.91;18498803;32;20096;-58
2023/01/23 22:52:21;;;;;;;0.57;0.57;;;;;;;7.27;62.29;101793.72;18498559;32;20140;-59
2023/01/23 23:02:25;;;;;;;1.27;1.17;;;;;;;6.99;62.90;101812.69;18498795;32;20124;-58
2023/01/23 23:12:28;;;;;;;0.62;0.62;;;;;;;6.81;63.39;101829.38;18497700;32;20097;-58
2023/01/23 23:22:33;;;;;;;0.60;0.60;;;;;;;6.62;63.42;101833.87;18499111;32;20112;-58
2023/01/23 23:32:36;;;;;;;0.82;0.82;;;;;;;6.48;63.54;101833.34;18497635;32;20111;-58
2023/01/23 23:42:41;;;;;;;0.50;0.50;;;;;;;6.51;63.59;101842.97;18496949;32;20101;-58
2023/01/23 23:52:44;;;;;;;3.65;1.17;;;;;;;6.45;63.87;101846.22;18498078;32;20485;-58
